createdAt,value
2022-10-18T00:02:20.445Z,98678.02
2022-10-18T00:04:47.195Z,98678.27
2022-10-18T00:07:13.768Z,98682.30
2022-10-18T00:09:40.474Z,98677.80
2022-10-18T00:12:06.999Z,98678.14
2022-10-18T00:14:33.626Z,98686.13
2022-10-18T00:17:00.176Z,98681.02
2022-10-18T00:19:29.196Z,98685.48
2022-10-18T00:21:56.347Z,98691.37
2022-10-18T00:24:22.917Z,98693.38
2022-10-18T00:26:49.479Z,98694.63
2022-10-18T00:29:16.614Z,98696.37
2022-10-18T00:31:43.910Z,98694.35
2022-10-18T00:34:13.517Z,98694.42
2022-10-18T00:36:40.686Z,98692.58
2022-10-18T00:39:08.635Z,98695.26
2022-10-18T00:41:38.124Z,98698.58
2022-10-18T00:44:12.468Z,98693.64
2022-10-18T00:46:41.206Z,98695.59
2022-10-18T00:49:14.561Z,98693.56
2022-10-18T00:52:06.900Z,98694.52
2022-10-18T00:54:36.048Z,98695.05
2022-10-18T00:57:03.389Z,98694.88
2022-10-18T00:59:30.204Z,98691.66
2022-10-18T01:01:57.181Z,98694.41
2022-10-18T01:04:24.038Z,98693.60
2022-10-18T01:07:01.978Z,98686.69
2022-10-18T01:09:39.828Z,98683.18
2022-10-18T01:12:24.949Z,98679.85
2022-10-18T01:15:06.324Z,98678.58
2022-10-18T01:17:33.084Z,98680.91
2022-10-18T01:20:13.507Z,98683.14
2022-10-18T01:22:45.944Z,98682.48
2022-10-18T01:25:18.711Z,98685.30
2022-10-18T01:27:54.392Z,98680.61
2022-10-18T01:30:41.667Z,98679.95
2022-10-18T01:33:27.337Z,98678.83
2022-10-18T01:36:00.141Z,98674.41
2022-10-18T01:38:31.541Z,98674.89
2022-10-18T01:40:59.546Z,98672.87
2022-10-18T01:43:29.169Z,98669.38
2022-10-18T01:45:59.365Z,98665.63
2022-10-18T01:48:26.138Z,98659.17
2022-10-18T01:50:53.131Z,98662.62
2022-10-18T01:53:33.177Z,98659.86
2022-10-18T01:56:18.419Z,98658.21
2022-10-18T01:59:00.959Z,98658.08
2022-10-18T02:01:50.755Z,98656.71
2022-10-18T02:04:28.985Z,98658.27
2022-10-18T02:07:03.905Z,98657.52
2022-10-18T02:09:42.122Z,98653.52
2022-10-18T02:12:12.269Z,98655.24
2022-10-18T02:14:41.000Z,98652.27
2022-10-18T02:17:11.654Z,98652.41
2022-10-18T02:19:43.360Z,98649.37
2022-10-18T02:22:12.773Z,98646.55
2022-10-18T02:24:44.143Z,98644.38
2022-10-18T02:27:11.317Z,98642.09
2022-10-18T02:29:39.593Z,98641.38
2022-10-18T02:32:41.002Z,98641.86
2022-10-18T02:35:13.635Z,98647.20
2022-10-18T02:37:41.353Z,98644.77
2022-10-18T02:40:09.848Z,98647.11
2022-10-18T02:42:38.987Z,98653.94
2022-10-18T02:45:06.990Z,98652.30
2022-10-18T02:47:33.832Z,98652.54
2022-10-18T02:50:00.596Z,98646.83
2022-10-18T02:52:27.189Z,98648.83
2022-10-18T02:54:53.777Z,98655.20
2022-10-18T02:57:20.353Z,98657.38
2022-10-18T02:59:46.965Z,98659.67
2022-10-18T03:02:13.500Z,98659.85
2022-10-18T03:04:40.065Z,98659.81
2022-10-18T03:07:06.628Z,98661.08
2022-10-18T03:09:33.263Z,98662.02
2022-10-18T03:11:59.893Z,98660.64
2022-10-18T03:14:26.503Z,98658.40
2022-10-18T03:16:53.066Z,98654.83
2022-10-18T03:19:19.716Z,98659.65
2022-10-18T03:21:46.263Z,98656.77
2022-10-18T03:24:12.826Z,98654.63
2022-10-18T03:26:39.414Z,98657.39
2022-10-18T03:29:06.113Z,98657.23
2022-10-18T03:31:33.847Z,98660.06
2022-10-18T03:34:00.554Z,98658.89
2022-10-18T03:36:27.279Z,98656.17
2022-10-18T03:38:53.981Z,98655.85
2022-10-18T03:41:20.967Z,98652.52
2022-10-18T03:43:47.800Z,98654.55
2022-10-18T03:46:14.443Z,98651.46
2022-10-18T03:48:41.050Z,98650.64
2022-10-18T03:51:07.601Z,98651.09
2022-10-18T03:53:34.157Z,98650.73
2022-10-18T03:56:00.706Z,98651.48
2022-10-18T03:58:27.347Z,98649.89
2022-10-18T04:00:55.235Z,98647.30
2022-10-18T04:03:23.507Z,98645.80
2022-10-18T04:05:50.452Z,98640.56
2022-10-18T04:08:17.745Z,98641.13
2022-10-18T04:10:45.164Z,98639.16
2022-10-18T04:13:12.104Z,98634.89
2022-10-18T04:15:38.737Z,98634.19
2022-10-18T04:18:05.311Z,98631.46
2022-10-18T04:20:31.877Z,98630.48
2022-10-18T04:22:58.551Z,98625.29
2022-10-18T04:25:25.732Z,98623.94
2022-10-18T04:27:52.324Z,98622.02
2022-10-18T04:30:18.898Z,98623.66
2022-10-18T04:32:45.515Z,98620.08
2022-10-18T04:35:12.099Z,98620.65
2022-10-18T04:37:38.726Z,98620.02
2022-10-18T04:40:05.831Z,98616.45
2022-10-18T04:42:32.445Z,98620.59
2022-10-18T04:44:59.043Z,98620.94
2022-10-18T04:47:25.674Z,98627.39
2022-10-18T04:49:53.811Z,98630.81
2022-10-18T04:52:20.412Z,98632.65
2022-10-18T04:54:46.967Z,98633.22
2022-10-18T04:57:13.549Z,98634.38
2022-10-18T04:59:40.170Z,98639.20
2022-10-18T05:02:06.884Z,98641.06
2022-10-18T05:04:33.737Z,98641.14
2022-10-18T05:07:00.398Z,98640.57
2022-10-18T05:09:27.006Z,98643.98
2022-10-18T05:11:53.575Z,98645.41
2022-10-18T05:14:20.208Z,98643.30
2022-10-18T05:16:46.758Z,98642.55
2022-10-18T05:19:13.350Z,98644.44
2022-10-18T05:21:39.920Z,98643.22
2022-10-18T05:24:06.725Z,98645.80
2022-10-18T05:26:33.244Z,98645.31
2022-10-18T05:28:59.801Z,98648.67
2022-10-18T05:31:26.457Z,98648.42
2022-10-18T05:33:53.063Z,98646.39
2022-10-18T05:36:19.624Z,98637.14
2022-10-18T05:38:48.026Z,98638.85
2022-10-18T05:41:14.647Z,98636.04
2022-10-18T05:43:41.234Z,98636.34
2022-10-18T05:46:13.566Z,98633.09
2022-10-18T05:48:43.425Z,98629.20
2022-10-18T05:51:11.047Z,98633.48
2022-10-18T05:53:38.502Z,98631.59
2022-10-18T05:56:07.570Z,98639.41
2022-10-18T05:58:34.908Z,98636.90
2022-10-18T06:01:03.286Z,98638.46
2022-10-18T06:03:31.180Z,98635.98
2022-10-18T06:06:06.246Z,98637.80
2022-10-18T06:08:33.608Z,98641.15
2022-10-18T06:11:00.827Z,98642.09
2022-10-18T06:13:29.122Z,98647.92
2022-10-18T06:15:57.985Z,98645.83
2022-10-18T06:20:26.679Z,98645.15
2022-10-18T06:22:53.736Z,98648.85
2022-10-18T06:25:20.343Z,98650.23
2022-10-18T06:27:46.939Z,98646.95
2022-10-18T06:30:13.634Z,98649.13
2022-10-18T06:32:40.218Z,98650.85
2022-10-18T06:35:07.240Z,98648.69
2022-10-18T06:37:35.697Z,98646.19
2022-10-18T06:40:02.661Z,98647.08
2022-10-18T06:42:29.232Z,98644.66
2022-10-18T06:44:55.872Z,98640.44
2022-10-18T06:47:22.510Z,98636.89
2022-10-18T06:49:49.196Z,98639.81
2022-10-18T06:52:20.866Z,98643.33
2022-10-18T06:54:47.442Z,98638.65
2022-10-18T06:57:14.096Z,98645.16
2022-10-18T06:59:40.681Z,98641.42
2022-10-18T07:02:07.455Z,98642.02
2022-10-18T07:04:34.181Z,98639.41
2022-10-18T07:07:00.756Z,98633.98
2022-10-18T07:09:27.421Z,98631.62
2022-10-18T07:11:54.211Z,98632.67
2022-10-18T07:14:20.775Z,98626.38
2022-10-18T07:16:47.382Z,98624.52
2022-10-18T07:19:15.029Z,98624.80
2022-10-18T07:21:41.721Z,98622.27
2022-10-18T07:24:08.288Z,98619.48
2022-10-18T07:26:35.520Z,98618.92
2022-10-18T07:29:06.989Z,98623.56
2022-10-18T07:31:34.103Z,98619.48
2022-10-18T07:34:01.117Z,98616.70
2022-10-18T07:36:27.727Z,98615.20
2022-10-18T07:38:54.949Z,98619.77
2022-10-18T07:41:22.122Z,98618.77
2022-10-18T07:43:53.690Z,98621.59
2022-10-18T07:46:21.903Z,98617.96
2022-10-18T07:48:48.613Z,98613.42
2022-10-18T07:51:15.324Z,98615.23
2022-10-18T07:53:42.416Z,98618.31
2022-10-18T07:56:16.337Z,98617.73
2022-10-18T07:58:44.294Z,98612.44
2022-10-18T08:01:11.488Z,98610.84
2022-10-18T08:03:38.954Z,98603.27
2022-10-18T08:06:09.182Z,98607.41
2022-10-18T08:08:37.268Z,98608.45
2022-10-18T08:11:06.125Z,98603.38
2022-10-18T08:13:33.461Z,98606.19
2022-10-18T08:16:09.059Z,98601.46
2022-10-18T08:18:37.054Z,98599.02
2022-10-18T08:21:06.088Z,98598.04
2022-10-18T08:23:33.297Z,98595.27
2022-10-18T08:26:05.818Z,98594.34
2022-10-18T08:28:33.285Z,98590.79
2022-10-18T08:31:05.699Z,98595.21
2022-10-18T08:33:33.112Z,98595.73
2022-10-18T08:36:02.119Z,98590.20
2022-10-18T08:38:33.588Z,98583.27
2022-10-18T08:41:17.022Z,98583.69
2022-10-18T08:44:07.273Z,98578.06
2022-10-18T08:46:37.603Z,98583.70
2022-10-18T08:49:05.891Z,98582.59
2022-10-18T08:51:42.717Z,98584.36
2022-10-18T08:54:15.159Z,98582.55
2022-10-18T08:56:55.024Z,98580.42
2022-10-18T08:59:24.735Z,98580.77
2022-10-18T09:02:31.462Z,98586.44
2022-10-18T09:05:09.450Z,98581.98
2022-10-18T09:07:45.384Z,98580.75
2022-10-18T09:10:40.517Z,98576.75
2022-10-18T09:13:07.130Z,98580.37
2022-10-18T09:15:49.859Z,98583.04
2022-10-18T09:18:42.919Z,98575.66
2022-10-18T09:21:26.001Z,98567.16
2022-10-18T09:24:25.971Z,98564.73
2022-10-18T09:27:04.841Z,98569.27
2022-10-18T09:29:59.875Z,98568.27
2022-10-18T09:33:05.443Z,98567.69
2022-10-18T09:36:25.133Z,98566.70
2022-10-18T09:38:58.539Z,98565.48
2022-10-18T09:41:34.589Z,98562.31
2022-10-18T09:44:25.963Z,98561.05
2022-10-18T09:47:00.636Z,98554.91
2022-10-18T09:49:31.934Z,98556.86
2022-10-18T09:52:03.802Z,98557.83
2022-10-18T09:54:36.149Z,98547.80
2022-10-18T09:57:21.224Z,98545.46
2022-10-18T09:59:50.748Z,98543.98
2022-10-18T10:02:23.188Z,98546.30
2022-10-18T10:04:51.114Z,98546.13
2022-10-18T10:07:34.917Z,98544.94
2022-10-18T10:10:27.130Z,98542.64
2022-10-18T10:13:16.299Z,98540.26
2022-10-18T10:15:53.587Z,98535.00
2022-10-18T10:18:31.069Z,98539.95
2022-10-18T10:21:01.004Z,98533.98
2022-10-18T10:23:33.997Z,98528.80
2022-10-18T10:26:34.145Z,98529.52
2022-10-18T10:29:01.122Z,98523.02
2022-10-18T10:31:29.933Z,98518.86
2022-10-18T10:34:04.208Z,98517.48
2022-10-18T10:36:32.870Z,98511.34
2022-10-18T10:39:10.155Z,98501.44
2022-10-18T10:41:39.761Z,98496.80
2022-10-18T10:44:19.153Z,98495.77
2022-10-18T10:46:48.336Z,98495.30
2022-10-18T10:49:39.229Z,98491.89
2022-10-18T10:52:15.434Z,98492.95
2022-10-18T10:54:53.879Z,98488.39
2022-10-18T10:57:28.133Z,98478.98
2022-10-18T10:59:58.616Z,98467.92
2022-10-18T11:02:37.551Z,98462.23
2022-10-18T11:05:30.621Z,98455.33
2022-10-18T11:08:03.812Z,98452.51
2022-10-18T11:10:35.051Z,98451.31
2022-10-18T11:13:29.157Z,98446.02
2022-10-18T11:16:00.970Z,98448.23
2022-10-18T11:18:32.589Z,98440.90
2022-10-18T11:21:08.275Z,98433.45
2022-10-18T11:23:37.414Z,98435.89
2022-10-18T11:26:13.101Z,98437.13
2022-10-18T11:29:03.990Z,98435.44
2022-10-18T11:31:56.493Z,98428.27
2022-10-18T11:34:36.551Z,98427.04
2022-10-18T11:37:32.143Z,98420.48
2022-10-18T11:40:49.932Z,98415.84
2022-10-18T11:44:02.169Z,98418.56
2022-10-18T11:46:54.656Z,98416.50
2022-10-18T11:50:17.305Z,98413.64
2022-10-18T11:52:56.544Z,98409.36
2022-10-18T11:55:33.179Z,98409.39
2022-10-18T11:58:38.225Z,98404.73
2022-10-18T12:01:39.303Z,98392.94
2022-10-18T12:04:19.807Z,98387.08
2022-10-18T12:06:53.433Z,98379.59
2022-10-18T12:09:39.250Z,98375.55
2022-10-18T12:12:26.366Z,98372.44
2022-10-18T12:14:57.628Z,98369.95
2022-10-18T12:17:48.939Z,98368.83
2022-10-18T12:20:26.228Z,98362.79
2022-10-18T12:23:05.070Z,98364.26
2022-10-18T12:25:38.989Z,98362.14
2022-10-18T12:28:21.201Z,98357.22
2022-10-18T12:31:07.969Z,98355.29
2022-10-18T12:33:42.416Z,98345.27
2022-10-18T12:36:19.092Z,98344.56
2022-10-18T12:38:50.093Z,98343.96
2022-10-18T12:41:24.344Z,98340.90
2022-10-18T12:43:59.099Z,98334.20
2022-10-18T12:46:44.293Z,98329.30
2022-10-18T12:49:13.773Z,98319.12
2022-10-18T12:51:55.798Z,98314.51
2022-10-18T12:54:28.262Z,98308.85
2022-10-18T12:56:55.556Z,98304.63
2022-10-18T12:59:26.429Z,98305.31
2022-10-18T13:01:53.115Z,98301.80
2022-10-18T13:04:28.981Z,98294.03
2022-10-18T13:07:03.205Z,98290.27
2022-10-18T13:09:35.721Z,98286.35
2022-10-18T13:12:11.125Z,98280.90
2022-10-18T13:15:20.630Z,98278.16
2022-10-18T13:17:56.495Z,98272.70
2022-10-18T13:20:28.051Z,98269.45
2022-10-18T13:23:13.663Z,98272.38
2022-10-18T13:25:46.393Z,98271.21
2022-10-18T13:28:34.453Z,98275.93
2022-10-18T13:31:14.800Z,98261.44
2022-10-18T13:33:42.585Z,98258.73
2022-10-18T13:36:22.754Z,98262.08
2022-10-18T13:38:57.856Z,98268.52
2022-10-18T13:41:34.281Z,98268.67
2022-10-18T13:44:02.236Z,98270.17
2022-10-18T13:46:38.397Z,98268.52
2022-10-18T13:49:18.104Z,98266.61
2022-10-18T13:52:12.971Z,98267.51
2022-10-18T13:54:58.717Z,98267.98
2022-10-18T13:57:40.984Z,98268.13
2022-10-18T14:00:29.938Z,98265.77
2022-10-18T14:03:44.068Z,98269.05
2022-10-18T14:06:15.682Z,98269.77
2022-10-18T14:08:49.354Z,98265.94
2022-10-18T14:11:44.144Z,98266.77
2022-10-18T14:14:36.873Z,98262.44
2022-10-18T14:17:52.082Z,98261.63
2022-10-18T14:20:23.014Z,98263.41
2022-10-18T14:23:01.718Z,98264.80
2022-10-18T14:25:31.794Z,98261.37
2022-10-18T14:28:27.432Z,98260.05
2022-10-18T14:31:11.902Z,98262.69
2022-10-18T14:33:58.114Z,98262.36
2022-10-18T14:36:34.488Z,98261.14
2022-10-18T14:39:04.514Z,98260.11
2022-10-18T14:41:47.483Z,98260.63
2022-10-18T14:44:21.258Z,98260.08
2022-10-18T14:47:14.842Z,98257.76
2022-10-18T14:49:45.380Z,98251.63
2022-10-18T14:52:26.466Z,98254.35
2022-10-18T14:54:56.241Z,98254.98
2022-10-18T14:57:35.824Z,98248.75
2022-10-18T15:00:08.357Z,98246.11
2022-10-18T15:02:38.419Z,98243.67
2022-10-18T15:05:16.539Z,98237.08
2022-10-18T15:07:44.329Z,98238.96
2022-10-18T15:10:18.023Z,98241.79
2022-10-18T15:13:08.355Z,98243.17
2022-10-18T15:15:34.959Z,98236.17
2022-10-18T15:18:02.331Z,98233.77
2022-10-18T15:20:31.955Z,98237.20
2022-10-18T15:23:26.162Z,98235.30
2022-10-18T15:26:02.280Z,98232.73
2022-10-18T15:28:37.631Z,98234.11
2022-10-18T15:31:05.084Z,98234.70
2022-10-18T15:33:36.107Z,98236.19
2022-10-18T15:36:11.285Z,98235.59
2022-10-18T15:38:39.044Z,98235.73
2022-10-18T15:41:37.249Z,98240.45
2022-10-18T15:44:28.501Z,98238.69
2022-10-18T15:47:09.154Z,98233.42
2022-10-18T15:49:44.821Z,98226.80
2022-10-18T15:52:33.830Z,98226.67
2022-10-18T15:55:31.668Z,98227.58
2022-10-18T15:58:18.985Z,98230.57
2022-10-18T16:00:47.303Z,98229.61
2022-10-18T16:03:15.474Z,98226.25
2022-10-18T16:05:42.236Z,98221.04
2022-10-18T16:08:29.029Z,98215.67
2022-10-18T16:10:55.955Z,98219.25
2022-10-18T16:13:22.622Z,98220.16
2022-10-18T16:15:49.291Z,98216.72
2022-10-18T16:18:18.923Z,98221.04
2022-10-18T16:20:46.867Z,98228.59
2022-10-18T16:23:16.557Z,98231.75
2022-10-18T16:25:43.182Z,98226.35
2022-10-18T16:28:14.201Z,98225.84
2022-10-18T16:30:42.539Z,98227.20
2022-10-18T16:33:09.115Z,98230.80
2022-10-18T16:35:35.976Z,98234.89
2022-10-18T16:38:02.757Z,98234.16
2022-10-18T16:40:29.407Z,98242.11
2022-10-18T16:42:56.242Z,98247.73
2022-10-18T16:45:22.876Z,98254.09
2022-10-18T16:47:49.484Z,98252.36
2022-10-18T16:50:18.193Z,98256.23
2022-10-18T16:52:45.135Z,98257.68
2022-10-18T16:55:25.142Z,98258.73
2022-10-18T16:57:52.259Z,98256.30
2022-10-18T17:00:21.426Z,98247.84
2022-10-18T17:02:49.681Z,98248.21
2022-10-18T17:05:17.984Z,98248.13
2022-10-18T17:07:47.108Z,98260.86
2022-10-18T17:10:16.099Z,98263.13
2022-10-18T17:12:42.862Z,98263.36
2022-10-18T17:15:10.729Z,98264.97
2022-10-18T17:17:38.245Z,98264.27
2022-10-18T17:20:07.273Z,98268.83
2022-10-18T17:22:34.050Z,98270.19
2022-10-18T17:25:00.638Z,98269.69
2022-10-18T17:27:27.444Z,98276.81
2022-10-18T17:29:54.131Z,98279.39
2022-10-18T17:32:20.941Z,98281.94
2022-10-18T17:34:47.656Z,98283.48
2022-10-18T17:37:14.343Z,98283.63
2022-10-18T17:39:41.106Z,98284.94
2022-10-18T17:42:07.852Z,98286.52
2022-10-18T17:44:34.590Z,98282.09
2022-10-18T17:47:01.995Z,98279.66
2022-10-18T17:49:28.877Z,98281.16
2022-10-18T17:51:55.711Z,98280.81
2022-10-18T17:54:22.451Z,98285.89
2022-10-18T17:56:52.347Z,98284.72
2022-10-18T17:59:21.161Z,98281.54
2022-10-18T18:04:17.016Z,98281.42
2022-10-18T18:06:45.551Z,98286.92
2022-10-18T18:09:16.728Z,98284.88
2022-10-18T18:11:45.329Z,98284.89
2022-10-18T18:14:11.973Z,98284.29
2022-10-18T18:16:41.394Z,98287.69
2022-10-18T18:19:10.072Z,98290.73
2022-10-18T18:21:37.942Z,98285.84
2022-10-18T18:24:05.162Z,98289.74
2022-10-18T18:26:33.154Z,98287.88
2022-10-18T18:29:00.427Z,98291.40
2022-10-18T18:31:30.765Z,98291.54
2022-10-18T18:34:01.200Z,98289.40
2022-10-18T18:36:32.675Z,98294.75
2022-10-18T18:38:59.527Z,98300.25
2022-10-18T18:41:28.134Z,98311.80
2022-10-18T18:43:58.183Z,98324.87
2022-10-18T18:46:27.180Z,98327.88
2022-10-18T18:48:54.088Z,98327.87
2022-10-18T18:51:21.645Z,98336.78
2022-10-18T18:53:49.076Z,98335.87
2022-10-18T18:58:49.282Z,98339.77
2022-10-18T19:01:18.869Z,98335.72
2022-10-18T19:03:48.179Z,98342.36
2022-10-18T19:06:18.207Z,98342.27
2022-10-18T19:08:45.991Z,98340.54
2022-10-18T19:11:16.847Z,98340.15
2022-10-18T19:13:43.837Z,98337.56
2022-10-18T19:16:24.174Z,98336.14
2022-10-18T19:18:52.659Z,98348.34
2022-10-18T19:21:19.816Z,98349.52
2022-10-18T19:23:46.529Z,98348.86
2022-10-18T19:26:21.767Z,98353.02
2022-10-18T19:28:48.396Z,98350.41
2022-10-18T19:31:14.986Z,98351.65
2022-10-18T19:33:48.780Z,98355.39
2022-10-18T19:36:25.395Z,98355.77
2022-10-18T19:38:52.029Z,98359.03
2022-10-18T19:41:18.678Z,98358.33
2022-10-18T19:43:45.309Z,98363.88
2022-10-18T19:46:11.861Z,98363.75
2022-10-18T19:48:38.462Z,98365.98
2022-10-18T19:51:08.972Z,98367.58
2022-10-18T19:53:36.370Z,98367.24
2022-10-18T19:56:04.761Z,98378.66
2022-10-18T19:58:31.595Z,98387.13
2022-10-18T20:00:58.491Z,98390.45
2022-10-18T20:03:25.125Z,98393.39
2022-10-18T20:05:56.619Z,98400.82
2022-10-18T20:08:24.701Z,98400.30
2022-10-18T20:10:51.737Z,98404.52
2022-10-18T20:13:18.783Z,98404.51
2022-10-18T20:15:49.580Z,98402.27
2022-10-18T20:18:17.779Z,98406.27
2022-10-18T20:20:47.348Z,98409.59
2022-10-18T20:23:18.669Z,98409.13
2022-10-18T20:25:58.970Z,98415.55
2022-10-18T20:28:26.242Z,98418.06
2022-10-18T20:31:01.019Z,98419.41
2022-10-18T20:33:27.869Z,98422.26
2022-10-18T20:35:54.718Z,98426.75
2022-10-18T20:38:21.782Z,98428.48
2022-10-18T20:40:48.355Z,98433.06
2022-10-18T20:43:14.947Z,98427.89
2022-10-18T20:45:41.505Z,98425.27
2022-10-18T20:48:08.110Z,98426.38
2022-10-18T20:50:34.679Z,98422.73
2022-10-18T20:53:01.267Z,98424.67
2022-10-18T20:55:29.274Z,98418.75
2022-10-18T20:57:55.843Z,98413.81
2022-10-18T21:00:22.450Z,98411.73
2022-10-18T21:02:49.019Z,98403.14
2022-10-18T21:05:16.668Z,98394.95
2022-10-18T21:07:43.237Z,98392.90
2022-10-18T21:10:09.854Z,98396.77
2022-10-18T21:12:36.636Z,98398.09
2022-10-18T21:15:03.911Z,98398.39
2022-10-18T21:17:30.565Z,98398.80
2022-10-18T21:19:57.181Z,98404.71
2022-10-18T21:22:23.809Z,98403.08
2022-10-18T21:24:50.956Z,98402.57
2022-10-18T21:27:17.502Z,98398.84
2022-10-18T21:29:44.079Z,98405.25
2022-10-18T21:32:10.613Z,98412.80
2022-10-18T21:34:37.222Z,98414.40
2022-10-18T21:37:03.791Z,98421.69
2022-10-18T21:39:30.373Z,98422.30
2022-10-18T21:41:57.051Z,98423.73
2022-10-18T21:44:23.628Z,98426.73
2022-10-18T21:46:50.800Z,98424.10
2022-10-18T21:49:17.450Z,98423.21
2022-10-18T21:51:44.631Z,98424.60
2022-10-18T21:54:13.363Z,98418.61
2022-10-18T21:56:40.238Z,98414.79
2022-10-18T21:59:06.975Z,98417.95
2022-10-18T22:01:36.232Z,98419.64
2022-10-18T22:04:06.977Z,98417.73
2022-10-18T22:09:10.176Z,98418.91
2022-10-18T22:11:41.405Z,98412.17
2022-10-18T22:14:08.046Z,98409.77
2022-10-18T22:16:34.783Z,98409.14
2022-10-18T22:19:02.703Z,98410.05
2022-10-18T22:21:29.919Z,98413.36
2022-10-18T22:23:57.776Z,98408.52
2022-10-18T22:26:33.566Z,98409.41
2022-10-18T22:29:02.664Z,98407.55
2022-10-18T22:31:32.567Z,98404.46
2022-10-18T22:34:07.816Z,98401.35
2022-10-18T22:36:35.673Z,98393.06
2022-10-18T22:39:02.863Z,98393.88
2022-10-18T22:41:30.131Z,98395.84
2022-10-18T22:43:58.520Z,98396.38
2022-10-18T22:46:27.999Z,98396.91
2022-10-18T22:48:54.659Z,98395.91
2022-10-18T22:51:21.354Z,98400.29
2022-10-18T22:53:48.108Z,98405.88
2022-10-18T22:58:14.322Z,98408.59
2022-10-18T23:00:42.098Z,98406.73
2022-10-18T23:03:09.840Z,98413.16
2022-10-18T23:05:42.050Z,98416.25
2022-10-18T23:08:11.997Z,98416.41
2022-10-18T23:10:41.609Z,98418.83
2022-10-18T23:13:10.855Z,98417.60
2022-10-18T23:15:41.521Z,98421.20
2022-10-18T23:18:09.125Z,98423.90
2022-10-18T23:20:36.894Z,98424.76
2022-10-18T23:23:04.614Z,98422.35
2022-10-18T23:25:36.663Z,98419.52
2022-10-18T23:28:06.014Z,98418.55
2022-10-18T23:30:34.077Z,98420.77
2022-10-18T23:33:01.860Z,98424.59
2022-10-18T23:35:29.472Z,98427.75
2022-10-18T23:37:57.163Z,98430.44
2022-10-18T23:40:24.919Z,98434.88
2022-10-18T23:42:52.655Z,98432.91
2022-10-18T23:45:20.371Z,98428.98
2022-10-18T23:47:48.104Z,98427.93
2022-10-18T23:50:15.888Z,98427.41
2022-10-18T23:52:43.659Z,98428.98
2022-10-18T23:55:11.320Z,98427.45
2022-10-18T23:57:39.058Z,98428.30
